• Join FlightAware (Why Join?)
  • Login
  • US Flag 
03:13PM EDT


 

Airport Tracker/Info


-or-


 

Live Flight TrackerFlight Track Log ✈ ASQ4086 ✈ 01-May-2013 ✈ KIAH - KDAL

Flight Track Log - Related Links

Times and Time Zones

All times are in EDT time to prevent confusion due to time zone crossing. See the ASQ4086 flight status page for this flight to view local times or setup timezone preferences in your user account.

Time Position Orientation Groundspeed Altitude Reporting Facility
EDT Latitude Longitude Course Direction KTS MPH feet Rate Location/Type
04:35PM 29.9683 -95.3475 333° Northwest 137 158 600  Level Houston Center
04:36PM 29.9939 -95.3058 55° Northeast 244 281 2,800 1,620 Climbing Houston Center
04:37PM 30.0117 -95.3006 14° North 240 276 2,900 180 Climbing Houston Center
04:37PM 30.0636 -95.2853 14° North 258 297 3,000 180 Climbing Houston Center
04:38PM 30.0825 -95.2803 13° North 253 291 3,100 1,500 Climbing Houston Center
04:39PM 30.2069 -95.4570 333° Northwest  Level FlightAware Approximate
04:39PM 30.1442 -95.2731 North 265 305 4,700  Level Houston Center
04:39PM 30.1533 -95.2767 341° North 262 302 5,100 3,540 Climbing Houston Center
04:40PM 30.2621 -95.4896 333° Northwest  Level FlightAware Approximate
04:40PM 30.2211 -95.3414 320° Northwest 264 304 9,500  Level Houston Center
04:41PM 30.3174 -95.5222 333° Northwest  Level FlightAware Approximate
04:41PM 30.2789 -95.3969 320° Northwest 270 311 12,000  Level Houston Center
04:42PM 30.3458 -95.4647 319° Northwest 314 361 13,600 1,740 Climbing Houston Center
04:43PM 30.4183 -95.5356 320° Northwest 337 388 15,600 1,860 Climbing Houston Center
04:44PM 30.4942 -95.6108 319° Northwest 355 409 17,500 1,980 Climbing Houston Center
04:45PM 30.5992 -95.6853 329° Northwest 376 433 19,700 1,800 Climbing Houston Center
04:46PM 30.6853 -95.7317 335° Northwest 375 432 21,300 1,560 Climbing Houston Center
04:47PM 30.7819 -95.7831 335° Northwest 380 437 23,000 1,260 Climbing Houston Center
04:48PM 30.9061 -95.8497 335° Northwest 401 461 24,000 480 Climbing Houston Center
04:49PM 31.0161 -95.9083 335° Northwest 426 490 24,000  Level Houston Center
04:50PM 31.1267 -95.9658 336° Northwest 432 497 24,000  Level Houston Center
04:51PM 31.2456 -95.9961 348° North 437 503 24,000  Level Houston Center
04:52PM 31.3497 -96.0194 349° North 425 489 24,000  Level Fort Worth Center
04:53PM 31.4689 -96.0494 348° North 433 498 24,000 -300 Level Fort Worth Center
04:54PM 31.5864 -96.0817 347° North 423 487 23,500 -960 Descending Fort Worth Center
04:55PM 31.7036 -96.1217 344° North 435 501 22,100 -1,500 Descending Fort Worth Center
04:56PM 31.8147 -96.1592 344° North 427 491 20,500 -1,800 Descending Fort Worth Center
04:57PM 31.9236 -96.1969 344° North 414 476 18,500 -2,100 Descending Fort Worth Center
04:58PM 32.0367 -96.2344 344° North 392 451 16,400 -2,640 Descending Fort Worth Center
04:59PM 32.1331 -96.2678 344° North 382 440 13,300 -3,720 Descending Fort Worth Center
05:00PM 32.2272 -96.2983 345° North 358 412 9,000 -1,800 Descending Fort Worth Center
05:01PM 32.3089 -96.3269 344° North 320 368 9,700  Climbing Fort Worth Center
05:02PM 32.3822 -96.3531 343° North 280 322 9,000 -480 Descending Fort Worth Center
05:03PM 32.4556 -96.3794 343° North 274 315 8,800 -660 Descending Fort Worth Center
05:04PM 32.5103 -96.4503 313° West 274 315 7,700 -1,020 Descending Fort Worth Center
05:05PM 32.5794 -96.4939 332° Northwest 281 323 6,800 -1,080 Descending Fort Worth Center
05:06PM 32.6486 -96.5300 336° Northwest 276 318 5,600 -900 Descending Fort Worth Center
05:07PM 32.7117 -96.5814 326° Northwest 269 310 5,000 -300 Descending Fort Worth Center
05:08PM 32.7683 -96.6328 323° Northwest 280 322 5,100  Climbing Fort Worth Center
05:09PM 32.8000 -96.6667 318° Northwest 279 321 5,000 -600 Descending Dallas / Fort Worth TRACON
05:10PM 32.8667 -96.7167 328° Northwest 246 283 4,200 -780 Descending Dallas / Fort Worth TRACON
05:11PM 32.9000 -96.7667 308° West 234 269 3,500 -600 Descending Dallas / Fort Worth TRACON
05:12PM 32.9333 -96.8333 301° West 221 254 3,100 -420 Descending Dallas / Fort Worth TRACON